createdAt,value
2019-06-10T00:01:21.314Z,91.70
2019-06-10T00:03:48.230Z,91.70
2019-06-10T00:06:14.758Z,91.80
2019-06-10T00:08:41.486Z,92.30
2019-06-10T00:11:07.987Z,92.50
2019-06-10T00:13:34.955Z,92.80
2019-06-10T00:16:03.451Z,92.90
2019-06-10T00:18:38.324Z,93.20
2019-06-10T00:20:59.825Z,93.10
2019-06-10T00:23:26.831Z,93.30
2019-06-10T00:25:53.592Z,93.10
2019-06-10T00:28:21.707Z,93.20
2019-06-10T00:30:48.861Z,93.10
2019-06-10T00:33:15.579Z,93.20
2019-06-10T00:35:43.246Z,93.30
2019-06-10T00:38:13.900Z,93.40
2019-06-10T00:40:40.893Z,93.30
2019-06-10T00:43:07.291Z,93.50
2019-06-10T00:45:35.115Z,93.40
2019-06-10T00:48:12.357Z,93.70
2019-06-10T00:50:30.840Z,93.80
2019-06-10T00:52:57.428Z,93.80
2019-06-10T00:55:24.415Z,94.00
2019-06-10T00:58:07.577Z,94.10
2019-06-10T01:00:34.448Z,94.20
2019-06-10T01:03:02.417Z,94.30
2019-06-10T01:05:31.298Z,94.10
2019-06-10T01:07:57.965Z,94.20
2019-06-10T01:10:24.430Z,94.80
2019-06-10T01:12:51.396Z,94.90
2019-06-10T01:15:18.341Z,95.20
2019-06-10T01:17:45.259Z,94.80
2019-06-10T01:20:14.414Z,95.10
2019-06-10T01:22:41.191Z,94.90
2019-06-10T01:25:09.864Z,94.90
2019-06-10T01:27:42.331Z,95.20
2019-06-10T01:30:16.654Z,95.40
2019-06-10T01:32:37.946Z,95.40
2019-06-10T01:35:04.445Z,95.90
2019-06-10T01:37:31.209Z,96.30
2019-06-10T01:39:57.959Z,96.30
2019-06-10T01:42:24.705Z,96.00
2019-06-10T01:44:51.679Z,95.70
2019-06-10T01:47:18.851Z,95.90
2019-06-10T01:49:45.386Z,96.20
2019-06-10T01:52:13.953Z,96.00
2019-06-10T01:54:42.077Z,96.00
2019-06-10T01:57:12.263Z,96.00
2019-06-10T01:59:37.623Z,96.10
2019-06-10T02:02:17.281Z,95.90
2019-06-10T02:04:42.706Z,95.70
2019-06-10T02:07:12.100Z,95.40
2019-06-10T02:09:38.278Z,95.30
2019-06-10T02:12:04.741Z,95.50
2019-06-10T02:14:32.048Z,95.60
2019-06-10T02:17:01.127Z,95.80
2019-06-10T02:19:27.810Z,96.00
2019-06-10T02:21:54.759Z,96.30
2019-06-10T02:24:23.326Z,96.90
2019-06-10T02:26:51.607Z,96.60
2019-06-10T02:29:21.455Z,96.70
2019-06-10T02:31:46.802Z,97.10
2019-06-10T02:34:19.692Z,97.80
2019-06-10T02:36:44.438Z,97.90
2019-06-10T02:39:13.348Z,98.20
2019-06-10T02:41:39.262Z,98.00
2019-06-10T02:44:05.944Z,98.20
2019-06-10T02:46:35.954Z,98.30
2019-06-10T02:49:17.576Z,98.10
2019-06-10T02:51:31.400Z,98.80
2019-06-10T02:53:58.831Z,99.10
2019-06-10T02:56:30.771Z,99.10
2019-06-10T02:58:54.220Z,99.50
2019-06-10T03:01:23.280Z,99.90
2019-06-10T03:03:49.966Z,99.90
2019-06-10T03:06:20.131Z,99.90
2019-06-10T03:08:46.372Z,99.90
2019-06-10T03:11:14.029Z,99.90
2019-06-10T03:13:42.609Z,99.90
2019-06-10T03:16:23.060Z,99.90
2019-06-10T03:18:49.731Z,99.90
2019-06-10T03:21:16.229Z,99.90
2019-06-10T03:23:43.305Z,99.90
2019-06-10T03:26:12.175Z,99.90
2019-06-10T03:28:38.462Z,99.90
2019-06-10T03:31:06.024Z,99.90
2019-06-10T03:33:40.954Z,99.90
2019-06-10T03:36:03.227Z,99.90
2019-06-10T03:38:32.548Z,99.90
2019-06-10T03:40:58.951Z,99.90
2019-06-10T03:43:26.687Z,99.90
2019-06-10T03:45:54.558Z,99.90
2019-06-10T03:48:23.739Z,99.90
2019-06-10T03:50:52.333Z,99.90
2019-06-10T03:53:19.121Z,99.90
2019-06-10T03:55:46.056Z,99.90
2019-06-10T03:58:12.771Z,99.90
2019-06-10T04:00:39.537Z,99.90
2019-06-10T04:03:06.003Z,99.90
2019-06-10T04:05:33.106Z,99.90
2019-06-10T04:08:14.379Z,99.90
2019-06-10T04:10:43.006Z,99.90
2019-06-10T04:13:10.090Z,99.90
2019-06-10T04:15:36.583Z,99.90
2019-06-10T04:18:03.894Z,99.90
2019-06-10T04:20:33.089Z,99.90
2019-06-10T04:22:59.671Z,99.90
2019-06-10T04:25:28.260Z,99.90
2019-06-10T04:27:55.328Z,99.90
2019-06-10T04:30:24.339Z,99.90
2019-06-10T04:32:52.775Z,99.90
2019-06-10T04:35:20.896Z,99.90
2019-06-10T04:37:47.923Z,99.90
2019-06-10T04:40:14.714Z,99.90
2019-06-10T04:42:43.471Z,99.90
2019-06-10T04:45:12.225Z,99.90
2019-06-10T04:47:39.011Z,99.90
2019-06-10T04:50:20.565Z,99.90
2019-06-10T04:52:34.150Z,99.90
2019-06-10T04:55:02.601Z,99.90
2019-06-10T04:57:29.631Z,99.90
2019-06-10T04:59:56.479Z,99.90
2019-06-10T05:02:25.478Z,99.90
2019-06-10T05:04:53.224Z,99.90
2019-06-10T05:07:21.616Z,99.90
2019-06-10T05:09:49.011Z,99.90
2019-06-10T05:12:15.876Z,99.90
2019-06-10T05:14:43.282Z,99.90
2019-06-10T05:17:12.592Z,99.90
2019-06-10T05:19:38.615Z,99.90
2019-06-10T05:22:05.386Z,99.90
2019-06-10T05:24:34.318Z,99.90
2019-06-10T05:27:02.116Z,99.90
2019-06-10T05:29:29.919Z,99.90
2019-06-10T05:31:57.144Z,99.90
2019-06-10T05:34:26.782Z,99.90
2019-06-10T05:36:52.663Z,99.90
2019-06-10T05:39:20.749Z,99.90
2019-06-10T05:41:50.143Z,99.90
2019-06-10T05:44:16.439Z,99.90
2019-06-10T05:46:43.697Z,99.90
2019-06-10T05:49:12.360Z,99.90
2019-06-10T05:51:39.089Z,99.90
2019-06-10T05:54:05.607Z,99.90
2019-06-10T05:56:35.200Z,99.90
2019-06-10T05:59:04.211Z,99.90
2019-06-10T06:01:29.697Z,99.90
2019-06-10T06:03:56.484Z,99.90
2019-06-10T06:06:23.235Z,99.90
2019-06-10T06:08:50.128Z,99.90
2019-06-10T06:11:17.107Z,99.90
2019-06-10T06:13:43.651Z,99.90
2019-06-10T06:16:12.585Z,99.90
2019-06-10T06:18:39.382Z,99.90
2019-06-10T06:21:22.450Z,99.90
2019-06-10T06:23:38.196Z,99.90
2019-06-10T06:26:05.481Z,99.90
2019-06-10T06:28:34.630Z,99.90
2019-06-10T06:31:03.368Z,99.90
2019-06-10T06:33:35.792Z,99.90
2019-06-10T06:35:59.288Z,99.90
2019-06-10T06:38:26.881Z,99.90
2019-06-10T06:40:53.963Z,99.90
2019-06-10T06:43:22.215Z,99.90
2019-06-10T06:45:48.874Z,99.90
2019-06-10T06:48:15.529Z,99.90
2019-06-10T06:51:00.317Z,99.90
2019-06-10T06:53:21.281Z,99.90
2019-06-10T06:55:39.758Z,99.90
2019-06-10T06:58:06.735Z,99.90
2019-06-10T07:00:48.961Z,99.90
2019-06-10T07:03:03.094Z,99.90
2019-06-10T07:05:32.306Z,99.90
2019-06-10T07:08:02.789Z,99.90
2019-06-10T07:10:30.922Z,99.90
2019-06-10T07:12:58.019Z,99.90
2019-06-10T07:15:34.092Z,98.60
2019-06-10T07:18:02.321Z,98.40
2019-06-10T07:20:29.414Z,98.90
2019-06-10T07:22:56.411Z,98.90
2019-06-10T07:25:23.371Z,98.10
2019-06-10T07:27:52.650Z,99.30
2019-06-10T07:30:18.824Z,99.40
2019-06-10T07:32:47.239Z,99.60
2019-06-10T07:35:14.290Z,99.10
2019-06-10T07:37:43.508Z,99.40
2019-06-10T07:40:09.406Z,97.60
2019-06-10T07:42:36.314Z,97.80
2019-06-10T07:45:04.501Z,98.90
2019-06-10T07:47:32.638Z,97.30
2019-06-10T07:49:59.911Z,94.90
2019-06-10T07:52:26.594Z,95.50
2019-06-10T07:54:53.338Z,94.10
2019-06-10T07:57:19.822Z,95.30
2019-06-10T07:59:46.347Z,95.40
2019-06-10T08:02:12.877Z,95.60
2019-06-10T08:04:40.565Z,95.80
2019-06-10T08:07:08.607Z,95.00
2019-06-10T08:09:36.994Z,95.10
2019-06-10T08:12:05.986Z,94.60
2019-06-10T08:14:33.121Z,95.10
2019-06-10T08:17:02.914Z,95.20
2019-06-10T08:19:35.041Z,95.80
2019-06-10T08:21:56.710Z,93.10
2019-06-10T08:24:23.567Z,93.50
2019-06-10T08:26:50.346Z,94.30
2019-06-10T08:29:16.997Z,92.80
2019-06-10T08:31:47.940Z,92.40
2019-06-10T08:34:13.423Z,89.40
2019-06-10T08:36:47.143Z,90.20
2019-06-10T08:39:15.963Z,88.70
2019-06-10T08:41:45.591Z,88.60
2019-06-10T08:44:12.360Z,86.30
2019-06-10T08:46:38.889Z,89.40
2019-06-10T08:49:05.675Z,83.40
2019-06-10T08:51:32.574Z,83.00
2019-06-10T08:54:02.130Z,83.40
2019-06-10T08:56:27.828Z,81.10
2019-06-10T08:58:54.309Z,80.10
2019-06-10T09:01:22.374Z,83.60
2019-06-10T09:03:51.262Z,79.80
2019-06-10T09:06:18.179Z,83.50
2019-06-10T09:08:48.048Z,79.90
2019-06-10T09:11:14.020Z,79.60
2019-06-10T09:13:46.379Z,81.70
2019-06-10T09:16:18.280Z,75.40
2019-06-10T09:18:40.055Z,77.70
2019-06-10T09:21:12.847Z,77.90
2019-06-10T09:23:39.622Z,76.30
2019-06-10T09:26:12.437Z,76.80
2019-06-10T09:28:39.275Z,78.10
2019-06-10T09:31:07.168Z,74.30
2019-06-10T09:33:34.928Z,76.10
2019-06-10T09:36:03.226Z,75.40
2019-06-10T09:38:33.435Z,75.40
2019-06-10T09:41:05.210Z,78.90
2019-06-10T09:43:29.338Z,76.60
2019-06-10T09:45:56.782Z,70.70
2019-06-10T09:48:23.721Z,74.10
2019-06-10T09:50:56.748Z,73.00
2019-06-10T09:53:30.241Z,71.90
2019-06-10T09:55:51.006Z,69.60
2019-06-10T09:58:16.858Z,68.70
2019-06-10T10:00:48.534Z,67.40
2019-06-10T10:03:12.793Z,69.70
2019-06-10T10:05:43.235Z,66.20
2019-06-10T10:08:08.149Z,65.40
2019-06-10T10:10:35.244Z,65.10
2019-06-10T10:13:02.687Z,61.90
2019-06-10T10:15:31.610Z,59.30
2019-06-10T10:17:58.266Z,58.90
2019-06-10T10:20:25.080Z,59.10
2019-06-10T10:22:55.173Z,59.10
2019-06-10T10:25:23.400Z,60.40
2019-06-10T10:27:51.334Z,59.70
2019-06-10T10:30:19.868Z,59.90
2019-06-10T10:32:48.924Z,58.50
2019-06-10T10:35:15.743Z,59.50
2019-06-10T10:37:42.667Z,60.30
2019-06-10T10:40:09.143Z,59.50
2019-06-10T10:42:45.369Z,55.80
2019-06-10T10:45:04.631Z,55.70
2019-06-10T10:47:33.531Z,56.60
2019-06-10T10:50:02.561Z,59.90
2019-06-10T10:52:28.144Z,56.20
2019-06-10T10:54:55.631Z,55.90
2019-06-10T10:57:23.227Z,56.20
2019-06-10T10:59:52.895Z,58.00
2019-06-10T11:02:18.343Z,58.50
2019-06-10T11:04:46.202Z,58.50
2019-06-10T11:07:13.189Z,56.80
2019-06-10T11:09:42.456Z,57.40
2019-06-10T11:12:08.935Z,58.70
2019-06-10T11:14:35.874Z,62.80
2019-06-10T11:17:02.874Z,63.20
2019-06-10T11:19:32.113Z,63.70
2019-06-10T11:21:58.620Z,60.60
2019-06-10T11:24:36.546Z,56.10
2019-06-10T11:26:56.574Z,56.00
2019-06-10T11:29:23.517Z,56.40
2019-06-10T11:31:52.802Z,53.90
2019-06-10T11:34:19.837Z,55.20
2019-06-10T11:36:47.992Z,55.80
2019-06-10T11:39:14.727Z,57.30
2019-06-10T11:41:43.636Z,57.70
2019-06-10T11:44:10.373Z,57.30
2019-06-10T11:46:37.100Z,59.30
2019-06-10T11:49:04.071Z,56.90
2019-06-10T11:51:31.008Z,58.00
2019-06-10T11:54:07.409Z,58.80
2019-06-10T11:56:36.421Z,59.30
2019-06-10T11:59:08.951Z,60.20
2019-06-10T12:01:36.209Z,57.10
2019-06-10T12:04:12.862Z,56.70
2019-06-10T12:06:43.416Z,53.80
2019-06-10T12:09:13.806Z,51.30
2019-06-10T12:11:44.091Z,50.40
2019-06-10T12:14:14.986Z,49.60
2019-06-10T12:19:18.776Z,50.40
2019-06-10T12:21:46.479Z,48.20
2019-06-10T12:24:22.921Z,46.60
2019-06-10T12:26:49.821Z,47.00
2019-06-10T12:29:17.704Z,44.70
2019-06-10T12:31:45.317Z,45.20
2019-06-10T12:34:12.547Z,44.70
2019-06-10T12:36:39.427Z,45.40
2019-06-10T12:39:10.575Z,46.40
2019-06-10T12:41:36.865Z,43.70
2019-06-10T12:44:05.865Z,44.60
2019-06-10T12:46:46.216Z,45.80
2019-06-10T12:49:15.389Z,45.90
2019-06-10T12:51:42.679Z,46.80
2019-06-10T12:54:13.270Z,47.00
2019-06-10T12:56:43.267Z,47.60
2019-06-10T12:59:15.510Z,47.00
2019-06-10T13:01:44.887Z,47.00
2019-06-10T13:04:13.947Z,46.70
2019-06-10T13:06:46.017Z,48.30
2019-06-10T13:09:37.765Z,46.90
2019-06-10T13:12:16.435Z,45.40
2019-06-10T13:14:49.210Z,45.70
2019-06-10T13:17:16.813Z,47.20
2019-06-10T13:19:52.235Z,47.10
2019-06-10T13:22:18.977Z,46.10
2019-06-10T13:24:46.710Z,46.60
2019-06-10T13:27:13.799Z,45.60
2019-06-10T13:29:43.755Z,47.90
2019-06-10T13:32:32.450Z,44.50
2019-06-10T13:35:14.549Z,45.00
2019-06-10T13:37:42.860Z,44.60
2019-06-10T13:40:12.875Z,45.00
2019-06-10T13:42:38.488Z,42.10
2019-06-10T13:45:09.678Z,42.70
2019-06-10T13:47:36.847Z,42.20
2019-06-10T13:50:07.683Z,42.50
2019-06-10T13:52:32.676Z,42.90
2019-06-10T13:54:59.180Z,43.40
2019-06-10T13:57:25.673Z,46.00
2019-06-10T13:59:52.160Z,45.80
2019-06-10T14:02:19.223Z,46.00
2019-06-10T14:04:46.131Z,47.10
2019-06-10T14:07:17.336Z,47.20
2019-06-10T14:09:41.735Z,49.40
2019-06-10T14:12:09.117Z,49.50
2019-06-10T14:14:36.659Z,48.50
2019-06-10T14:17:03.934Z,49.10
2019-06-10T14:19:32.483Z,48.10
2019-06-10T14:21:59.183Z,49.30
2019-06-10T14:24:26.062Z,50.50
2019-06-10T14:26:53.160Z,50.10
2019-06-10T14:29:19.877Z,50.30
2019-06-10T14:31:48.060Z,52.50
2019-06-10T14:34:18.005Z,53.50
2019-06-10T14:36:43.767Z,53.30
2019-06-10T14:39:12.693Z,51.40
2019-06-10T14:41:38.768Z,49.40
2019-06-10T14:44:06.693Z,49.50
2019-06-10T14:46:33.716Z,48.40
2019-06-10T14:49:02.311Z,48.40
2019-06-10T14:51:29.065Z,48.60
2019-06-10T14:53:55.638Z,51.30
2019-06-10T14:56:23.401Z,50.70
2019-06-10T14:58:52.950Z,51.30
2019-06-10T15:01:25.031Z,50.20
2019-06-10T15:03:47.927Z,49.60
2019-06-10T15:06:15.646Z,51.40
2019-06-10T15:08:46.946Z,51.80
2019-06-10T15:11:13.683Z,54.30
2019-06-10T15:13:43.306Z,54.90
2019-06-10T15:16:10.096Z,55.00
2019-06-10T15:18:36.816Z,56.20
2019-06-10T15:21:03.299Z,56.90
2019-06-10T15:23:32.278Z,57.60
2019-06-10T15:25:58.530Z,57.80
2019-06-10T15:28:25.059Z,58.20
2019-06-10T15:30:52.532Z,58.40
2019-06-10T15:33:19.694Z,59.30
2019-06-10T15:35:46.671Z,58.20
2019-06-10T15:38:16.570Z,59.70
2019-06-10T15:40:43.389Z,59.50
2019-06-10T15:43:11.690Z,59.10
2019-06-10T15:45:38.411Z,59.60
2019-06-10T15:48:05.116Z,62.50
2019-06-10T15:50:32.351Z,63.70
2019-06-10T15:52:59.206Z,61.30
2019-06-10T15:55:49.191Z,62.40
2019-06-10T15:57:54.546Z,61.50
2019-06-10T16:00:24.268Z,62.40
2019-06-10T16:02:49.961Z,64.20
2019-06-10T16:05:17.780Z,64.20
2019-06-10T16:07:45.177Z,64.50
2019-06-10T16:10:12.844Z,65.50
2019-06-10T16:12:40.356Z,67.00
2019-06-10T16:15:07.436Z,67.20
2019-06-10T16:17:34.166Z,69.00
2019-06-10T16:20:03.644Z,69.00
2019-06-10T16:22:29.780Z,70.10
2019-06-10T16:24:56.352Z,70.60
2019-06-10T16:27:43.661Z,70.30
2019-06-10T16:30:04.570Z,69.00
2019-06-10T16:32:34.666Z,69.80
2019-06-10T16:35:04.112Z,71.00
2019-06-10T16:37:36.155Z,71.50
2019-06-10T16:40:06.573Z,71.40
2019-06-10T16:42:34.372Z,74.20
2019-06-10T16:45:02.607Z,78.20
2019-06-10T16:47:32.530Z,81.80
2019-06-10T16:49:59.288Z,85.70
2019-06-10T16:52:27.475Z,90.60
2019-06-10T16:54:58.779Z,91.90
2019-06-10T16:57:27.286Z,93.70
2019-06-10T16:59:54.536Z,95.40
2019-06-10T17:02:23.365Z,95.90
2019-06-10T17:04:52.514Z,97.40
2019-06-10T17:07:18.810Z,98.00
2019-06-10T17:09:45.948Z,98.80
2019-06-10T17:12:12.723Z,99.90
2019-06-10T17:14:39.482Z,99.90
2019-06-10T17:17:08.446Z,99.90
2019-06-10T17:19:36.518Z,99.90
2019-06-10T17:22:03.128Z,99.90
2019-06-10T17:24:31.517Z,99.90
2019-06-10T17:27:02.475Z,99.90
2019-06-10T17:29:29.420Z,99.90
2019-06-10T17:31:57.422Z,99.90
2019-06-10T17:34:26.044Z,99.90
2019-06-10T17:36:53.824Z,99.90
2019-06-10T17:39:24.682Z,99.90
2019-06-10T17:41:50.560Z,99.90
2019-06-10T17:44:17.783Z,99.90
2019-06-10T17:46:45.052Z,99.90
2019-06-10T17:49:13.044Z,99.90
2019-06-10T17:51:43.122Z,99.70
2019-06-10T17:54:09.684Z,99.70
2019-06-10T17:56:38.556Z,99.90
2019-06-10T17:59:05.644Z,99.90
2019-06-10T18:01:34.256Z,99.90
2019-06-10T18:04:02.488Z,99.90
2019-06-10T18:06:29.940Z,99.90
2019-06-10T18:08:56.918Z,99.90
2019-06-10T18:11:25.146Z,99.90
2019-06-10T18:13:52.189Z,99.90
2019-06-10T18:16:19.308Z,99.90
2019-06-10T18:18:46.188Z,99.90
2019-06-10T18:21:12.902Z,99.90
2019-06-10T18:23:39.743Z,99.90
2019-06-10T18:26:06.543Z,99.90
2019-06-10T18:28:45.565Z,99.90
2019-06-10T18:31:02.351Z,99.90
2019-06-10T18:33:30.140Z,99.90
2019-06-10T18:35:56.943Z,99.90
2019-06-10T18:38:27.743Z,99.90
2019-06-10T18:40:54.464Z,99.90
2019-06-10T18:43:22.881Z,99.90
2019-06-10T18:45:52.972Z,99.90
2019-06-10T18:48:18.987Z,99.90
2019-06-10T18:50:49.092Z,99.90
2019-06-10T18:53:16.486Z,99.90
2019-06-10T18:55:46.785Z,99.90
2019-06-10T18:58:13.559Z,99.90
2019-06-10T19:00:56.885Z,99.90
2019-06-10T19:03:13.905Z,99.90
2019-06-10T19:05:42.801Z,99.90
2019-06-10T19:08:12.592Z,99.90
2019-06-10T19:10:43.505Z,99.90
2019-06-10T19:13:13.372Z,99.90
2019-06-10T19:15:42.554Z,99.90
2019-06-10T19:18:15.346Z,99.90
2019-06-10T19:20:48.061Z,99.90
2019-06-10T19:23:16.541Z,99.90
2019-06-10T19:25:52.442Z,99.90
2019-06-10T19:28:28.747Z,99.90
2019-06-10T19:30:58.384Z,99.90
2019-06-10T19:33:37.528Z,99.90
2019-06-10T19:36:06.943Z,99.90
2019-06-10T19:38:44.089Z,99.90
2019-06-10T19:41:15.689Z,99.90
2019-06-10T19:43:45.248Z,99.90
2019-06-10T19:46:13.822Z,99.90
2019-06-10T19:48:55.632Z,99.90
2019-06-10T19:51:12.872Z,99.90
2019-06-10T19:53:44.966Z,99.90
2019-06-10T19:56:15.039Z,99.90
2019-06-10T19:58:46.273Z,99.90
2019-06-10T20:01:12.927Z,99.90
2019-06-10T20:03:47.086Z,99.90
2019-06-10T20:06:16.585Z,99.90
2019-06-10T20:08:46.199Z,99.90
2019-06-10T20:11:13.847Z,99.90
2019-06-10T20:13:53.076Z,99.90
2019-06-10T20:16:20.813Z,99.90
2019-06-10T20:18:49.796Z,99.90
2019-06-10T20:21:17.467Z,99.90
2019-06-10T20:23:45.759Z,99.90
2019-06-10T20:26:18.784Z,99.90
2019-06-10T20:28:48.716Z,99.90
2019-06-10T20:31:15.054Z,99.90
2019-06-10T20:33:45.408Z,99.90
2019-06-10T20:36:21.207Z,99.90
2019-06-10T20:38:45.527Z,99.90
2019-06-10T20:41:13.378Z,99.90
2019-06-10T20:43:45.892Z,99.90
2019-06-10T20:46:14.113Z,99.90
2019-06-10T20:48:45.827Z,99.90
2019-06-10T20:51:14.485Z,99.90
2019-06-10T20:53:45.935Z,99.90
2019-06-10T20:56:14.780Z,99.90
2019-06-10T20:58:49.695Z,99.90
2019-06-10T21:01:17.776Z,99.90
2019-06-10T21:03:47.560Z,99.90
2019-06-10T21:06:14.601Z,99.90
2019-06-10T21:08:46.808Z,99.90
2019-06-10T21:11:16.319Z,99.90
2019-06-10T21:13:48.786Z,99.90
2019-06-10T21:16:13.852Z,99.90
2019-06-10T21:18:48.389Z,99.90
2019-06-10T21:21:14.219Z,99.90
2019-06-10T21:23:44.641Z,99.90
2019-06-10T21:26:16.619Z,99.90
2019-06-10T21:28:46.046Z,99.90
2019-06-10T21:31:19.235Z,99.90
2019-06-10T21:33:45.907Z,99.90
2019-06-10T21:36:13.661Z,99.90
2019-06-10T21:38:44.265Z,99.90
2019-06-10T21:41:12.355Z,99.90
2019-06-10T21:43:42.530Z,99.90
2019-06-10T21:46:09.085Z,99.90
2019-06-10T21:48:37.866Z,99.90
2019-06-10T21:51:07.648Z,99.90
2019-06-10T21:53:44.606Z,99.90
2019-06-10T21:56:13.435Z,99.90
2019-06-10T21:58:43.925Z,99.90
2019-06-10T22:01:17.101Z,99.90
2019-06-10T22:03:50.227Z,99.90
2019-06-10T22:06:13.215Z,99.90
2019-06-10T22:08:42.444Z,99.90
2019-06-10T22:11:09.757Z,99.90
2019-06-10T22:13:46.149Z,99.90
2019-06-10T22:16:13.087Z,99.90
2019-06-10T22:18:41.379Z,99.90
2019-06-10T22:21:14.662Z,99.90
2019-06-10T22:23:44.579Z,99.90
2019-06-10T22:26:13.062Z,99.90
2019-06-10T22:28:43.116Z,99.90
2019-06-10T22:31:22.250Z,99.90
2019-06-10T22:33:45.288Z,99.90
2019-06-10T22:36:15.617Z,99.90
2019-06-10T22:38:44.151Z,99.90
2019-06-10T22:41:12.281Z,99.90
2019-06-10T22:43:42.711Z,99.90
2019-06-10T22:46:10.245Z,99.90
2019-06-10T22:48:43.887Z,99.90
2019-06-10T22:51:12.370Z,99.90
2019-06-10T22:53:42.952Z,99.90
2019-06-10T22:56:13.615Z,99.90
2019-06-10T22:58:47.649Z,99.90
2019-06-10T23:01:33.620Z,99.90
2019-06-10T23:03:50.148Z,99.90
2019-06-10T23:06:19.845Z,99.90
2019-06-10T23:08:48.034Z,99.90
2019-06-10T23:11:15.182Z,99.90
2019-06-10T23:13:44.889Z,99.90
2019-06-10T23:16:15.243Z,99.90
2019-06-10T23:18:42.606Z,99.90
2019-06-10T23:21:13.402Z,99.90
2019-06-10T23:23:44.956Z,99.90
2019-06-10T23:26:13.779Z,99.90
2019-06-10T23:28:45.558Z,99.90
2019-06-10T23:31:16.279Z,99.90
2019-06-10T23:33:50.063Z,99.90
2019-06-10T23:36:19.270Z,99.90
2019-06-10T23:38:47.705Z,99.90
2019-06-10T23:41:16.761Z,99.90
2019-06-10T23:43:43.876Z,99.90
2019-06-10T23:46:13.305Z,99.90
2019-06-10T23:48:46.585Z,99.90
2019-06-10T23:51:14.041Z,99.90
2019-06-10T23:53:45.455Z,99.90
2019-06-10T23:56:13.033Z,99.90
2019-06-10T23:58:46.977Z,99.90
